Time;durP1;ratioP1;P1;durP2;ratioP2;P2;SDS_P1;SDS_P2;PMS_P1;PMS_P2;Temp;Humidity;BMP_temperature;BMP_pressure;BME280_temperature;BME280_humidity;BME280_pressure;Samples;Min_cycle;Max_cycle;Signal;HPM_P1;HPM_P2
2023/06/18 00:00:53;;;;;;;11.10;7.05;;;;;;;;;;5064114;28;20269;-50
2023/06/18 00:03:19;;;;;;;8.98;6.88;;;;;;;;;;5056375;28;20585;-50
2023/06/18 00:05:45;;;;;;;9.30;7.38;;;;;;;;;;5058358;28;20183;-50
2023/06/18 00:08:11;;;;;;;8.95;6.97;;;;;;;;;;5058216;28;20489;-50
2023/06/18 00:10:37;;;;;;;8.65;7.07;;;;;;;;;;5055730;28;20265;-50
2023/06/18 00:13:04;;;;;;;10.32;7.40;;;;;;;;;;5056491;28;20271;-50
2023/06/18 00:15:30;;;;;;;10.55;8.10;;;;;;;;;;5056742;28;20273;-50
2023/06/18 00:17:56;;;;;;;8.98;7.05;;;;;;;;;;5054367;28;20195;-50
2023/06/18 00:20:22;;;;;;;8.70;7.57;;;;;;;;;;5062794;28;20256;-50
2023/06/18 00:22:52;;;;;;;8.30;7.07;;;;;;;;;;5058038;28;20187;-50
2023/06/18 00:25:18;;;;;;;9.32;7.00;;;;;;;;;;5062739;28;20185;-50
2023/06/18 00:27:44;;;;;;;9.40;7.55;;;;;;;;;;5052307;28;20217;-50
2023/06/18 00:30:11;;;;;;;9.02;7.50;;;;;;;;;;5058386;28;20183;-50
2023/06/18 00:32:37;;;;;;;10.25;7.78;;;;;;;;;;5054103;28;20184;-50
2023/06/18 00:35:04;;;;;;;8.10;7.15;;;;;;;;;;5056542;28;20191;-50
2023/06/18 00:37:30;;;;;;;8.82;7.40;;;;;;;;;;5078190;28;20460;-50
2023/06/18 00:39:56;;;;;;;7.90;7.07;;;;;;;;;;5056805;28;20187;-50
2023/06/18 00:42:22;;;;;;;10.27;7.10;;;;;;;;;;5064676;28;20186;-51
2023/06/18 00:44:48;;;;;;;7.03;6.32;;;;;;;;;;5060425;28;20187;-50
2023/06/18 00:47:14;;;;;;;9.30;7.13;;;;;;;;;;5055789;28;20198;-50
2023/06/18 00:49:43;;;;;;;9.32;6.50;;;;;;;;;;5067987;28;20271;-50
2023/06/18 00:52:12;;;;;;;7.82;7.03;;;;;;;;;;5065417;28;20189;-50
2023/06/18 00:54:40;;;;;;;9.48;6.90;;;;;;;;;;5065088;28;20186;-50
2023/06/18 00:57:08;;;;;;;9.68;7.55;;;;;;;;;;5056687;28;20628;-50
2023/06/18 00:59:34;;;;;;;8.70;6.97;;;;;;;;;;5065029;28;20233;-50
2023/06/18 01:02:01;;;;;;;7.80;6.82;;;;;;;;;;5057638;28;20462;-50
2023/06/18 01:04:29;;;;;;;7.40;6.60;;;;;;;;;;5065005;28;20193;-50
2023/06/18 01:06:55;;;;;;;7.72;6.93;;;;;;;;;;5058014;28;20211;-50
2023/06/18 01:09:22;;;;;;;9.88;7.53;;;;;;;;;;5066720;28;20179;-50
2023/06/18 01:11:53;;;;;;;9.10;7.78;;;;;;;;;;5066428;28;20451;-50
2023/06/18 01:14:25;;;;;;;9.52;7.10;;;;;;;;;;5060203;28;20191;-50
2023/06/18 01:16:53;;;;;;;8.52;7.30;;;;;;;;;;5065791;28;20179;-50
2023/06/18 01:19:23;;;;;;;8.10;7.20;;;;;;;;;;5064780;28;20542;-50
2023/06/18 01:21:56;;;;;;;11.18;7.30;;;;;;;;;;5062999;28;20191;-50
2023/06/18 01:24:27;;;;;;;12.40;7.20;;;;;;;;;;5064756;28;20186;-50
2023/06/18 01:26:56;;;;;;;9.13;7.57;;;;;;;;;;5061808;28;20290;-50
2023/06/18 01:29:24;;;;;;;8.93;7.30;;;;;;;;;;5059381;28;20406;-50
2023/06/18 01:31:52;;;;;;;9.50;7.57;;;;;;;;;;5064371;28;20175;-50
2023/06/18 01:34:20;;;;;;;10.50;7.78;;;;;;;;;;5062777;28;20171;-50
2023/06/18 01:36:56;;;;;;;7.90;7.10;;;;;;;;;;5059049;28;20257;-50
2023/06/18 01:39:41;;;;;;;8.48;6.70;;;;;;;;;;5055045;28;20202;-50
2023/06/18 01:42:17;;;;;;;9.18;6.50;;;;;;;;;;5063100;28;20202;-50
2023/06/18 01:44:45;;;;;;;7.55;6.75;;;;;;;;;;5061740;28;20182;-50
2023/06/18 01:47:13;;;;;;;8.32;7.43;;;;;;;;;;5063392;28;20214;-50
2023/06/18 01:49:40;;;;;;;9.82;6.57;;;;;;;;;;5064204;28;20174;-50
2023/06/18 01:52:08;;;;;;;7.85;7.05;;;;;;;;;;5064151;28;20183;-50
2023/06/18 01:54:35;;;;;;;9.57;6.65;;;;;;;;;;5058782;28;20217;-50
2023/06/18 01:57:02;;;;;;;7.88;6.45;;;;;;;;;;5060734;28;20190;-50
2023/06/18 01:59:28;;;;;;;7.70;6.75;;;;;;;;;;5058231;28;20267;-50
2023/06/18 02:01:53;;;;;;;8.48;6.82;;;;;;;;;;5057929;28;20266;-50
2023/06/18 02:04:20;;;;;;;8.50;6.60;;;;;;;;;;5063838;28;20225;-50
2023/06/18 02:06:46;;;;;;;9.07;6.82;;;;;;;;;;5058481;28;20194;-54
2023/06/18 02:09:11;;;;;;;7.95;6.72;;;;;;;;;;5059823;28;20442;-50
2023/06/18 02:11:37;;;;;;;7.25;6.53;;;;;;;;;;5059556;28;20192;-50
2023/06/18 02:14:03;;;;;;;7.72;6.65;;;;;;;;;;5064378;28;20187;-50
2023/06/18 02:16:29;;;;;;;7.57;6.28;;;;;;;;;;5056596;28;20456;-50
2023/06/18 02:18:55;;;;;;;9.32;6.20;;;;;;;;;;5055992;28;20202;-50
2023/06/18 02:21:21;;;;;;;7.75;6.60;;;;;;;;;;5055576;28;20190;-50
2023/06/18 02:23:47;;;;;;;8.20;6.80;;;;;;;;;;5063587;28;20199;-50
2023/06/18 02:26:13;;;;;;;10.45;6.85;;;;;;;;;;5052662;28;20221;-50
2023/06/18 02:28:39;;;;;;;8.40;6.78;;;;;;;;;;5061503;28;20202;-50
2023/06/18 02:31:06;;;;;;;6.88;6.18;;;;;;;;;;5064037;28;20208;-50
2023/06/18 02:33:32;;;;;;;8.45;6.38;;;;;;;;;;5065076;28;20473;-50
2023/06/18 02:35:58;;;;;;;8.60;6.35;;;;;;;;;;5049954;28;20198;-50
2023/06/18 02:38:24;;;;;;;10.10;6.82;;;;;;;;;;5067050;28;20566;-50
2023/06/18 02:40:51;;;;;;;7.32;6.40;;;;;;;;;;5063857;28;20178;-50
2023/06/18 02:43:16;;;;;;;8.77;6.65;;;;;;;;;;5058009;28;20262;-50
2023/06/18 02:45:42;;;;;;;8.52;6.63;;;;;;;;;;5052520;28;20277;-50
2023/06/18 02:48:08;;;;;;;8.05;7.05;;;;;;;;;;5059138;28;20195;-50
2023/06/18 02:50:34;;;;;;;10.60;6.93;;;;;;;;;;5053741;28;20562;-50
2023/06/18 02:53:00;;;;;;;9.32;7.55;;;;;;;;;;5060594;28;20175;-50
2023/06/18 02:55:26;;;;;;;8.70;7.13;;;;;;;;;;5057362;28;20229;-50
2023/06/18 02:57:52;;;;;;;9.98;6.63;;;;;;;;;;5066856;28;20253;-50
2023/06/18 03:00:19;;;;;;;8.00;6.90;;;;;;;;;;5053321;28;20266;-50
2023/06/18 03:02:45;;;;;;;7.30;6.43;;;;;;;;;;5058832;28;20186;-50
2023/06/18 03:05:11;;;;;;;10.55;6.03;;;;;;;;;;5066900;28;20186;-50
2023/06/18 03:07:37;;;;;;;9.82;6.82;;;;;;;;;;5067124;28;20532;-50
2023/06/18 03:10:03;;;;;;;7.75;6.20;;;;;;;;;;5053374;28;20191;-50
2023/06/18 03:12:29;;;;;;;8.75;6.57;;;;;;;;;;5064095;28;20179;-50
2023/06/18 03:14:55;;;;;;;8.05;6.95;;;;;;;;;;5059405;28;20555;-50
2023/06/18 03:17:21;;;;;;;9.20;7.03;;;;;;;;;;5070221;28;20794;-50
2023/06/18 03:19:47;;;;;;;8.25;6.95;;;;;;;;;;5057176;28;20616;-50
2023/06/18 03:22:14;;;;;;;9.57;7.15;;;;;;;;;;5070015;28;20202;-50
2023/06/18 03:24:40;;;;;;;8.32;7.35;;;;;;;;;;5062016;28;20183;-50
2023/06/18 03:27:06;;;;;;;6.88;5.97;;;;;;;;;;5066191;28;20213;-50
2023/06/18 03:29:35;;;;;;;8.18;7.20;;;;;;;;;;5060400;28;20190;-50
2023/06/18 03:32:01;;;;;;;7.95;7.15;;;;;;;;;;5066125;28;20175;-50
2023/06/18 03:34:27;;;;;;;10.55;7.78;;;;;;;;;;5065052;28;20245;-50
2023/06/18 03:36:54;;;;;;;9.98;8.98;;;;;;;;;;5061722;28;20218;-50
2023/06/18 03:39:20;;;;;;;8.85;7.95;;;;;;;;;;5061280;28;20191;-50
2023/06/18 03:41:46;;;;;;;8.50;7.57;;;;;;;;;;5062574;28;20178;-50
2023/06/18 03:44:11;;;;;;;8.40;7.60;;;;;;;;;;5052758;28;20213;-50
2023/06/18 03:46:37;;;;;;;9.40;7.80;;;;;;;;;;5065749;28;20622;-50
2023/06/18 03:49:03;;;;;;;10.43;7.10;;;;;;;;;;5065045;28;20592;-50
2023/06/18 03:51:29;;;;;;;9.25;6.97;;;;;;;;;;5057516;28;20179;-50
2023/06/18 03:53:55;;;;;;;7.88;7.07;;;;;;;;;;5062851;28;20187;-50
2023/06/18 03:56:22;;;;;;;8.93;6.65;;;;;;;;;;5054323;28;20590;-50
2023/06/18 03:58:48;;;;;;;7.95;7.10;;;;;;;;;;5056345;28;20189;-50
2023/06/18 04:01:14;;;;;;;7.18;6.47;;;;;;;;;;5062661;28;20693;-50
2023/06/18 04:03:40;;;;;;;9.27;6.47;;;;;;;;;;5058063;28;20858;-50
2023/06/18 04:06:06;;;;;;;7.40;5.63;;;;;;;;;;5063097;28;20229;-50
2023/06/18 04:08:33;;;;;;;7.00;6.30;;;;;;;;;;5060256;28;20174;-50
2023/06/18 04:11:00;;;;;;;8.15;6.30;;;;;;;;;;5055993;28;20431;-50
2023/06/18 04:13:25;;;;;;;8.02;6.50;;;;;;;;;;5060908;28;20182;-50
2023/06/18 04:15:52;;;;;;;9.13;6.82;;;;;;;;;;5058270;28;20179;-50
2023/06/18 04:18:17;;;;;;;7.40;6.63;;;;;;;;;;5071494;28;20630;-50
2023/06/18 04:20:44;;;;;;;8.02;6.22;;;;;;;;;;5054109;28;20187;-50
2023/06/18 04:23:12;;;;;;;7.20;6.47;;;;;;;;;;5070141;28;20205;-50
2023/06/18 04:25:38;;;;;;;7.72;6.45;;;;;;;;;;5059415;28;20214;-50
2023/06/18 04:28:04;;;;;;;9.30;6.50;;;;;;;;;;5071326;28;20210;-51
2023/06/18 04:30:30;;;;;;;7.28;6.28;;;;;;;;;;5064705;28;20186;-50
2023/06/18 04:32:56;;;;;;;7.63;6.60;;;;;;;;;;5070815;28;20185;-50
2023/06/18 04:35:22;;;;;;;7.65;6.75;;;;;;;;;;5064459;28;20187;-50
2023/06/18 04:37:49;;;;;;;6.82;6.13;;;;;;;;;;5063266;28;20182;-50
2023/06/18 04:40:15;;;;;;;7.32;6.15;;;;;;;;;;5063815;28;20206;-50
2023/06/18 04:42:41;;;;;;;8.57;7.05;;;;;;;;;;5062057;28;20186;-50
2023/06/18 04:45:08;;;;;;;6.88;6.15;;;;;;;;;;5062694;28;20680;-50
2023/06/18 04:47:34;;;;;;;8.07;5.80;;;;;;;;;;5060096;28;20198;-50
2023/06/18 04:50:02;;;;;;;9.77;6.43;;;;;;;;;;5065926;28;20175;-50
2023/06/18 04:52:28;;;;;;;8.20;6.55;;;;;;;;;;5067894;28;20604;-50
2023/06/18 04:54:54;;;;;;;9.52;6.45;;;;;;;;;;5060847;28;20183;-50
2023/06/18 04:57:20;;;;;;;7.07;6.28;;;;;;;;;;5066295;28;20192;-50
2023/06/18 04:59:46;;;;;;;8.65;6.53;;;;;;;;;;5067671;28;20229;-50
2023/06/18 05:02:12;;;;;;;7.10;6.40;;;;;;;;;;5056860;28;20207;-50
2023/06/18 05:04:39;;;;;;;7.32;6.47;;;;;;;;;;5065923;28;20213;-50
2023/06/18 05:07:05;;;;;;;8.18;5.90;;;;;;;;;;5056562;28;20210;-50
2023/06/18 05:09:31;;;;;;;10.07;6.78;;;;;;;;;;5066666;28;20174;-50
2023/06/18 05:11:57;;;;;;;8.50;6.55;;;;;;;;;;5058185;28;20436;-51
2023/06/18 05:14:22;;;;;;;6.90;5.82;;;;;;;;;;5064589;28;20230;-50
2023/06/18 05:16:48;;;;;;;6.68;5.53;;;;;;;;;;5068097;28;20325;-50
2023/06/18 05:19:14;;;;;;;6.80;6.10;;;;;;;;;;5061853;28;20195;-50
2023/06/18 05:21:40;;;;;;;9.82;6.40;;;;;;;;;;5065091;28;20210;-50
2023/06/18 05:24:09;;;;;;;8.90;7.10;;;;;;;;;;5063038;28;20230;-50
2023/06/18 05:26:35;;;;;;;7.45;6.28;;;;;;;;;;5063883;28;20237;-50
2023/06/18 05:29:01;;;;;;;10.75;6.50;;;;;;;;;;5064621;28;20179;-50
2023/06/18 05:31:28;;;;;;;7.97;6.15;;;;;;;;;;5057972;28;20186;-50
2023/06/18 05:33:54;;;;;;;10.13;5.60;;;;;;;;;;5059536;28;20614;-50
2023/06/18 05:36:22;;;;;;;9.25;6.10;;;;;;;;;;5064905;28;20236;-50
2023/06/18 05:38:48;;;;;;;8.55;5.63;;;;;;;;;;5060947;28;20213;-50
2023/06/18 05:41:14;;;;;;;8.27;5.57;;;;;;;;;;5071009;28;20197;-50
2023/06/18 05:43:40;;;;;;;8.88;6.10;;;;;;;;;;5068430;28;20260;-50
2023/06/18 05:46:06;;;;;;;8.65;6.07;;;;;;;;;;5060972;28;20233;-50
2023/06/18 05:48:32;;;;;;;7.30;6.22;;;;;;;;;;5055707;28;20438;-50
2023/06/18 05:50:58;;;;;;;8.15;6.15;;;;;;;;;;5059794;28;20180;-50
2023/06/18 05:53:23;;;;;;;6.40;5.78;;;;;;;;;;5059295;28;20186;-50
2023/06/18 05:55:49;;;;;;;6.22;5.60;;;;;;;;;;5055504;28;20175;-50
2023/06/18 05:58:15;;;;;;;5.97;5.38;;;;;;;;;;5055922;28;20266;-51
2023/06/18 06:00:41;;;;;;;8.45;5.43;;;;;;;;;;5055940;28;20187;-50
2023/06/18 06:03:08;;;;;;;5.70;4.82;;;;;;;;;;5055962;28;20206;-50
2023/06/18 06:05:35;;;;;;;7.57;5.75;;;;;;;;;;5055638;28;20221;-50
2023/06/18 06:08:01;;;;;;;11.27;5.72;;;;;;;;;;5054416;28;20210;-50
2023/06/18 06:10:27;;;;;;;7.30;5.57;;;;;;;;;;5055855;28;20270;-50
2023/06/18 06:12:53;;;;;;;7.40;5.75;;;;;;;;;;5056828;28;20191;-50
2023/06/18 06:15:19;;;;;;;7.25;5.93;;;;;;;;;;5055592;28;20195;-50
2023/06/18 06:17:46;;;;;;;6.38;5.70;;;;;;;;;;5055141;28;20965;-50
2023/06/18 06:20:12;;;;;;;8.23;6.25;;;;;;;;;;5061290;28;20190;-51
2023/06/18 06:22:38;;;;;;;9.38;5.95;;;;;;;;;;5057067;28;20187;-50
2023/06/18 06:25:04;;;;;;;6.50;5.90;;;;;;;;;;5054298;28;20297;-50
2023/06/18 06:27:30;;;;;;;6.63;5.68;;;;;;;;;;5053906;28;20594;-50
2023/06/18 06:29:56;;;;;;;6.43;5.10;;;;;;;;;;5058909;28;20175;-50
2023/06/18 06:32:22;;;;;;;6.75;5.90;;;;;;;;;;5062838;28;20600;-50
2023/06/18 06:34:48;;;;;;;6.90;6.20;;;;;;;;;;5065119;28;20653;-50
2023/06/18 06:37:14;;;;;;;7.70;6.65;;;;;;;;;;5062266;28;20179;-50
2023/06/18 06:39:40;;;;;;;8.20;6.15;;;;;;;;;;5055612;28;20190;-50
2023/06/18 06:42:06;;;;;;;7.47;5.85;;;;;;;;;;5063152;28;20195;-50
2023/06/18 06:44:32;;;;;;;7.63;5.90;;;;;;;;;;5063060;28;20183;-50
2023/06/18 06:46:58;;;;;;;6.70;5.93;;;;;;;;;;5053887;28;20203;-50
2023/06/18 06:49:24;;;;;;;8.40;6.45;;;;;;;;;;5056681;28;20187;-52
2023/06/18 06:51:54;;;;;;;6.65;5.72;;;;;;;;;;5065199;28;20178;-52
2023/06/18 06:54:19;;;;;;;10.25;6.07;;;;;;;;;;5059620;28;20567;-52
2023/06/18 06:56:45;;;;;;;8.30;5.78;;;;;;;;;;5054058;28;20269;-52
2023/06/18 06:59:11;;;;;;;7.13;5.63;;;;;;;;;;5065430;28;20198;-52
2023/06/18 07:01:39;;;;;;;9.40;5.68;;;;;;;;;;5057125;28;20551;-52
2023/06/18 07:04:05;;;;;;;9.27;5.85;;;;;;;;;;5060387;28;20178;-52
2023/06/18 07:06:31;;;;;;;6.28;5.10;;;;;;;;;;5065184;28;20216;-52
2023/06/18 07:08:59;;;;;;;6.97;5.65;;;;;;;;;;5057320;28;20175;-52
2023/06/18 07:11:25;;;;;;;6.07;5.35;;;;;;;;;;5063217;28;20220;-52
2023/06/18 07:13:51;;;;;;;8.90;5.80;;;;;;;;;;5066870;28;20206;-52
2023/06/18 07:16:17;;;;;;;7.43;5.70;;;;;;;;;;5057352;28;20182;-52
2023/06/18 07:18:44;;;;;;;6.05;5.45;;;;;;;;;;5065923;28;20189;-52
2023/06/18 07:21:10;;;;;;;7.00;5.70;;;;;;;;;;5049114;28;20539;-52
2023/06/18 07:23:36;;;;;;;7.65;5.60;;;;;;;;;;5070370;28;20273;-52
2023/06/18 07:26:01;;;;;;;8.75;5.50;;;;;;;;;;5055447;28;20262;-52
2023/06/18 07:28:27;;;;;;;6.70;5.07;;;;;;;;;;5070412;28;20263;-52
2023/06/18 07:30:53;;;;;;;5.95;5.32;;;;;;;;;;5057549;28;20179;-53
2023/06/18 07:33:19;;;;;;;6.10;5.30;;;;;;;;;;5061919;28;20232;-52
2023/06/18 07:35:45;;;;;;;5.75;4.78;;;;;;;;;;5063348;28;20217;-52
2023/06/18 07:38:11;;;;;;;6.20;4.95;;;;;;;;;;5067895;28;20210;-52
2023/06/18 07:40:38;;;;;;;5.05;4.55;;;;;;;;;;5066408;28;20465;-52
2023/06/18 07:43:04;;;;;;;9.13;5.45;;;;;;;;;;5061394;28;20206;-52
2023/06/18 07:45:30;;;;;;;9.02;5.95;;;;;;;;;;5052267;28;20178;-52
2023/06/18 07:47:56;;;;;;;6.00;5.18;;;;;;;;;;5057340;28;20306;-52
2023/06/18 07:50:22;;;;;;;6.43;4.50;;;;;;;;;;5060514;28;20224;-53
2023/06/18 07:52:48;;;;;;;5.78;5.18;;;;;;;;;;5053544;28;20179;-52
2023/06/18 07:55:14;;;;;;;6.88;5.15;;;;;;;;;;5056481;28;20214;-52
2023/06/18 07:57:40;;;;;;;6.47;4.82;;;;;;;;;;5053235;28;20594;-52
2023/06/18 08:00:06;;;;;;;6.25;5.30;;;;;;;;;;5061917;28;20202;-53
2023/06/18 08:02:32;;;;;;;5.88;5.25;;;;;;;;;;5053235;28;20282;-53
2023/06/18 08:04:58;;;;;;;5.88;5.00;;;;;;;;;;5056986;28;20281;-52
2023/06/18 08:07:24;;;;;;;5.43;4.88;;;;;;;;;;5061338;28;20348;-52
2023/06/18 08:09:50;;;;;;;4.70;4.15;;;;;;;;;;5053435;28;20550;-53
2023/06/18 08:12:16;;;;;;;6.25;5.10;;;;;;;;;;5057960;28;20186;-52
2023/06/18 08:14:45;;;;;;;5.55;4.90;;;;;;;;;;5055319;28;20516;-52
2023/06/18 08:17:15;;;;;;;5.97;5.15;;;;;;;;;;5056517;28;20175;-52
2023/06/18 08:19:44;;;;;;;5.78;4.97;;;;;;;;;;5054637;28;20179;-52
2023/06/18 08:22:10;;;;;;;6.72;5.10;;;;;;;;;;5061026;28;20255;-52
2023/06/18 08:24:36;;;;;;;4.95;4.45;;;;;;;;;;5060817;28;20187;-53
2023/06/18 08:27:02;;;;;;;6.00;4.68;;;;;;;;;;5063070;28;20195;-53
2023/06/18 08:29:28;;;;;;;6.78;5.00;;;;;;;;;;5059457;28;20266;-53
2023/06/18 08:31:54;;;;;;;7.45;5.25;;;;;;;;;;5069088;28;20522;-53
2023/06/18 08:34:20;;;;;;;5.43;4.80;;;;;;;;;;5061727;28;20266;-53
2023/06/18 08:36:47;;;;;;;7.45;5.03;;;;;;;;;;5066176;28;20182;-52
2023/06/18 08:39:13;;;;;;;6.90;4.93;;;;;;;;;;5059663;28;20216;-52
2023/06/18 08:41:42;;;;;;;6.30;4.88;;;;;;;;;;5061062;28;20197;-52
2023/06/18 08:44:08;;;;;;;5.35;4.45;;;;;;;;;;5054384;28;20183;-52
2023/06/18 08:46:35;;;;;;;5.47;4.35;;;;;;;;;;5064036;28;20211;-53
2023/06/18 08:49:02;;;;;;;7.25;5.05;;;;;;;;;;5053014;28;20178;-53
2023/06/18 08:51:28;;;;;;;6.75;5.03;;;;;;;;;;5052428;28;20210;-53
2023/06/18 08:53:54;;;;;;;6.55;4.93;;;;;;;;;;5065097;28;20182;-53
2023/06/18 08:56:22;;;;;;;6.60;4.90;;;;;;;;;;5067925;28;20183;-53
2023/06/18 08:58:50;;;;;;;5.25;4.72;;;;;;;;;;5053862;28;20577;-53
2023/06/18 09:01:16;;;;;;;4.88;4.38;;;;;;;;;;5063834;28;20182;-54
2023/06/18 09:03:42;;;;;;;5.45;4.28;;;;;;;;;;5067963;28;20185;-53
2023/06/18 09:06:08;;;;;;;6.03;4.60;;;;;;;;;;5063042;28;20270;-52
2023/06/18 09:08:35;;;;;;;5.43;4.50;;;;;;;;;;5058955;28;20222;-52
2023/06/18 09:11:02;;;;;;;5.93;4.75;;;;;;;;;;5073608;28;20190;-52
2023/06/18 09:13:28;;;;;;;5.47;4.65;;;;;;;;;;5058758;28;20264;-52
2023/06/18 09:15:55;;;;;;;5.55;4.93;;;;;;;;;;5057785;28;20217;-52
2023/06/18 09:18:22;;;;;;;6.57;4.90;;;;;;;;;;5072608;28;20178;-52
2023/06/18 09:20:48;;;;;;;5.75;5.00;;;;;;;;;;5071571;28;20558;-52
2023/06/18 09:23:14;;;;;;;5.75;5.15;;;;;;;;;;5065674;28;20597;-52
2023/06/18 09:25:40;;;;;;;6.93;5.30;;;;;;;;;;5057109;28;20179;-52
2023/06/18 09:28:06;;;;;;;5.00;4.40;;;;;;;;;;5064990;28;20202;-52
2023/06/18 09:30:32;;;;;;;6.03;4.90;;;;;;;;;;5066145;28;20233;-50
2023/06/18 09:32:59;;;;;;;6.35;4.47;;;;;;;;;;5064451;28;20265;-50
2023/06/18 09:35:26;;;;;;;5.97;5.18;;;;;;;;;;5063948;28;20179;-50
2023/06/18 09:37:53;;;;;;;6.43;4.78;;;;;;;;;;5071509;28;20270;-50
2023/06/18 09:40:20;;;;;;;7.22;5.25;;;;;;;;;;5060661;28;20237;-50
2023/06/18 09:42:48;;;;;;;6.60;4.75;;;;;;;;;;5066151;28;20260;-50
2023/06/18 09:45:15;;;;;;;5.65;4.97;;;;;;;;;;5056348;28;20175;-50
2023/06/18 09:47:43;;;;;;;7.50;5.43;;;;;;;;;;5064776;28;20253;-50
2023/06/18 09:50:10;;;;;;;6.30;5.60;;;;;;;;;;5062796;28;20187;-50
2023/06/18 09:52:47;;;;;;;6.53;5.00;;;;;;;;;;5067663;28;20186;-50
2023/06/18 09:55:26;;;;;;;6.75;5.13;;;;;;;;;;5062980;28;20186;-50
2023/06/18 09:57:52;;;;;;;5.75;5.15;;;;;;;;;;5053328;28;20171;-53
2023/06/18 10:00:19;;;;;;;6.50;5.13;;;;;;;;;;5055927;28;20237;-53
2023/06/18 10:02:45;;;;;;;5.45;4.57;;;;;;;;;;5058448;28;20258;-53
2023/06/18 10:05:10;;;;;;;5.10;4.50;;;;;;;;;;5066576;28;20270;-53
2023/06/18 10:07:39;;;;;;;7.15;4.93;;;;;;;;;;5064109;28;20268;-53
2023/06/18 10:10:07;;;;;;;7.30;5.10;;;;;;;;;;5060563;28;20538;-53
2023/06/18 10:12:33;;;;;;;5.65;4.82;;;;;;;;;;5060082;28;20263;-53
2023/06/18 10:14:59;;;;;;;5.30;4.75;;;;;;;;;;5064027;28;20281;-53
2023/06/18 10:17:31;;;;;;;6.05;5.40;;;;;;;;;;5068467;28;20198;-53
2023/06/18 10:20:04;;;;;;;6.50;5.30;;;;;;;;;;5067078;28;20178;-53
2023/06/18 10:22:34;;;;;;;7.22;5.40;;;;;;;;;;5053250;28;20262;-53
2023/06/18 10:25:05;;;;;;;8.30;5.50;;;;;;;;;;5059764;28;20289;-53
2023/06/18 10:27:31;;;;;;;5.18;4.68;;;;;;;;;;5058233;28;20257;-53
2023/06/18 10:29:57;;;;;;;5.18;4.68;;;;;;;;;;5058386;28;20178;-53
2023/06/18 10:32:24;;;;;;;6.07;5.28;;;;;;;;;;5059028;28;20594;-53
2023/06/18 10:34:50;;;;;;;5.28;4.78;;;;;;;;;;5062200;28;20593;-53
2023/06/18 10:37:16;;;;;;;5.80;5.15;;;;;;;;;;5070566;28;20521;-53
2023/06/18 10:39:42;;;;;;;6.03;5.43;;;;;;;;;;5062649;28;20231;-53
2023/06/18 10:42:12;;;;;;;5.68;4.93;;;;;;;;;;5071794;28;20193;-53
2023/06/18 10:44:47;;;;;;;7.57;5.00;;;;;;;;;;5053139;28;20187;-53
2023/06/18 10:47:20;;;;;;;5.93;5.32;;;;;;;;;;5063952;28;20249;-53
2023/06/18 10:50:09;;;;;;;5.82;5.22;;;;;;;;;;5062541;28;20196;-53
2023/06/18 10:52:39;;;;;;;5.80;5.03;;;;;;;;;;5069972;28;20232;-53
2023/06/18 10:55:28;;;;;;;6.82;5.07;;;;;;;;;;5068053;28;20193;-53
2023/06/18 10:58:02;;;;;;;6.10;4.72;;;;;;;;;;5058459;28;20205;-53
2023/06/18 11:00:35;;;;;;;5.25;4.68;;;;;;;;;;5062990;28;20232;-53
2023/06/18 11:03:21;;;;;;;6.47;5.28;;;;;;;;;;5059494;28;20179;-53
2023/06/18 11:05:54;;;;;;;5.70;4.85;;;;;;;;;;5051422;28;20231;-53
2023/06/18 11:08:46;;;;;;;6.07;4.80;;;;;;;;;;5060786;28;20289;-53
2023/06/18 11:11:15;;;;;;;6.38;4.68;;;;;;;;;;5069547;28;20222;-53
2023/06/18 11:13:41;;;;;;;5.93;4.95;;;;;;;;;;5062149;28;20195;-53
2023/06/18 11:16:09;;;;;;;6.57;4.90;;;;;;;;;;5070003;28;20190;-53
2023/06/18 11:18:35;;;;;;;5.25;4.75;;;;;;;;;;5064362;28;20430;-53
2023/06/18 11:21:02;;;;;;;5.55;4.78;;;;;;;;;;5061880;28;20197;-53
2023/06/18 11:23:29;;;;;;;5.65;4.80;;;;;;;;;;5066812;28;20277;-53
2023/06/18 11:25:55;;;;;;;5.80;4.35;;;;;;;;;;5064530;28;20285;-53
2023/06/18 11:28:25;;;;;;;6.32;4.90;;;;;;;;;;5072758;28;20205;-53
2023/06/18 11:30:52;;;;;;;5.13;4.60;;;;;;;;;;5064105;28;20269;-53
2023/06/18 11:33:36;;;;;;;5.53;4.78;;;;;;;;;;5065144;28;20179;-53
2023/06/18 11:36:12;;;;;;;6.20;5.07;;;;;;;;;;5055947;28;20227;-53
2023/06/18 11:38:41;;;;;;;6.05;4.60;;;;;;;;;;5058260;28;20654;-53
2023/06/18 11:41:08;;;;;;;5.68;5.00;;;;;;;;;;5053813;28;20198;-53
2023/06/18 11:43:50;;;;;;;6.05;4.55;;;;;;;;;;5055940;28;20278;-53
2023/06/18 11:46:45;;;;;;;5.90;4.90;;;;;;;;;;5055680;28;20191;-53
2023/06/18 11:49:15;;;;;;;5.90;4.82;;;;;;;;;;5037013;28;20195;-53
2023/06/18 11:51:41;;;;;;;5.53;4.65;;;;;;;;;;5047847;28;20262;-53
2023/06/18 11:54:07;;;;;;;5.95;4.60;;;;;;;;;;5059173;28;20178;-53
2023/06/18 11:56:34;;;;;;;6.15;4.55;;;;;;;;;;5059578;28;20337;-53
2023/06/18 11:59:00;;;;;;;5.40;4.55;;;;;;;;;;5054180;28;20205;-53
2023/06/18 12:01:29;;;;;;;8.20;4.82;;;;;;;;;;5055167;28;20174;-52
2023/06/18 12:04:05;;;;;;;5.60;4.22;;;;;;;;;;5054132;28;20321;-53
2023/06/18 12:06:31;;;;;;;4.60;4.20;;;;;;;;;;5056445;28;20174;-53
2023/06/18 12:09:07;;;;;;;5.22;4.63;;;;;;;;;;5052392;28;20545;-53
2023/06/18 12:11:39;;;;;;;5.10;4.60;;;;;;;;;;5059984;28;20170;-53
2023/06/18 12:14:08;;;;;;;5.20;4.60;;;;;;;;;;5063645;28;20221;-53
2023/06/18 12:16:35;;;;;;;5.88;4.72;;;;;;;;;;5067332;28;20202;-53
2023/06/18 12:19:03;;;;;;;5.53;4.60;;;;;;;;;;5060894;28;20175;-53
2023/06/18 12:21:30;;;;;;;6.22;4.68;;;;;;;;;;5053914;28;20175;-53
2023/06/18 12:23:57;;;;;;;5.40;4.90;;;;;;;;;;5051902;28;20194;-53
2023/06/18 12:26:23;;;;;;;5.85;5.25;;;;;;;;;;5065054;28;20186;-53
2023/06/18 12:28:49;;;;;;;7.43;4.82;;;;;;;;;;5068551;28;20179;-53
2023/06/18 12:31:15;;;;;;;7.40;5.30;;;;;;;;;;5056357;28;20248;-53
2023/06/18 12:33:43;;;;;;;5.15;4.65;;;;;;;;;;5053682;28;20183;-53
2023/06/18 12:36:09;;;;;;;6.38;4.55;;;;;;;;;;5060020;28;20258;-53
2023/06/18 12:38:39;;;;;;;6.00;4.40;;;;;;;;;;5054548;28;20266;-53
2023/06/18 12:41:05;;;;;;;5.47;4.68;;;;;;;;;;5065192;28;20205;-53
2023/06/18 12:43:31;;;;;;;6.43;4.68;;;;;;;;;;5059639;28;20197;-53
2023/06/18 12:45:56;;;;;;;5.43;4.35;;;;;;;;;;5059406;28;20195;-53
2023/06/18 12:48:28;;;;;;;5.95;4.88;;;;;;;;;;5060740;28;20207;-53
2023/06/18 12:50:55;;;;;;;5.82;4.82;;;;;;;;;;5060321;28;20925;-53
2023/06/18 12:53:24;;;;;;;5.20;4.65;;;;;;;;;;5061039;28;20229;-53
2023/06/18 12:55:51;;;;;;;7.10;5.13;;;;;;;;;;5068512;28;20580;-53
2023/06/18 12:58:18;;;;;;;4.40;4.00;;;;;;;;;;5059487;28;20183;-53
2023/06/18 13:00:44;;;;;;;5.43;4.63;;;;;;;;;;5062946;28;20186;-53
2023/06/18 13:03:10;;;;;;;5.32;4.82;;;;;;;;;;5060227;28;20342;-53
2023/06/18 13:05:36;;;;;;;4.75;4.32;;;;;;;;;;5065368;28;20194;-53
2023/06/18 13:08:02;;;;;;;6.22;4.30;;;;;;;;;;5059307;28;20206;-53
2023/06/18 13:10:28;;;;;;;6.05;4.47;;;;;;;;;;5062098;28;20337;-53
2023/06/18 13:12:55;;;;;;;6.00;4.72;;;;;;;;;;5067482;28;20187;-53
2023/06/18 13:15:21;;;;;;;6.18;4.70;;;;;;;;;;5053245;28;20210;-53
2023/06/18 13:17:47;;;;;;;5.53;4.85;;;;;;;;;;5073284;28;20182;-53
2023/06/18 13:20:13;;;;;;;6.28;4.75;;;;;;;;;;5055552;28;20187;-53
2023/06/18 13:22:39;;;;;;;5.22;4.63;;;;;;;;;;5073266;28;20198;-53
2023/06/18 13:25:06;;;;;;;5.60;4.50;;;;;;;;;;5055625;28;20265;-53
2023/06/18 13:27:32;;;;;;;6.38;5.03;;;;;;;;;;5072808;28;20649;-53
2023/06/18 13:29:58;;;;;;;5.72;4.20;;;;;;;;;;5069851;28;20187;-53
2023/06/18 13:32:24;;;;;;;5.43;4.50;;;;;;;;;;5067828;28;20180;-53
2023/06/18 13:34:50;;;;;;;5.68;5.07;;;;;;;;;;5064420;28;20222;-53
2023/06/18 13:37:17;;;;;;;5.70;4.30;;;;;;;;;;5062786;28;20191;-53
2023/06/18 13:39:45;;;;;;;5.07;4.53;;;;;;;;;;5066226;28;20191;-53
2023/06/18 13:42:11;;;;;;;5.85;4.82;;;;;;;;;;5066929;28;20194;-53
2023/06/18 13:44:37;;;;;;;5.38;4.63;;;;;;;;;;5057506;28;20187;-53
2023/06/18 13:47:04;;;;;;;6.53;4.63;;;;;;;;;;5062094;28;20282;-53
2023/06/18 13:49:30;;;;;;;6.60;5.07;;;;;;;;;;5054910;28;20266;-53
2023/06/18 13:51:56;;;;;;;6.35;4.80;;;;;;;;;;5055929;28;20171;-53
2023/06/18 13:54:22;;;;;;;5.90;4.63;;;;;;;;;;5055445;28;20171;-53
2023/06/18 13:56:48;;;;;;;5.53;4.65;;;;;;;;;;5055556;28;20380;-53
2023/06/18 13:59:14;;;;;;;5.70;5.10;;;;;;;;;;5056109;28;20202;-53
2023/06/18 14:01:40;;;;;;;5.50;4.85;;;;;;;;;;5059950;28;20201;-53
2023/06/18 14:04:06;;;;;;;5.35;4.57;;;;;;;;;;5062844;28;20183;-53
2023/06/18 14:06:34;;;;;;;6.88;5.35;;;;;;;;;;5056625;28;20232;-53
2023/06/18 14:09:00;;;;;;;4.47;4.07;;;;;;;;;;5054779;28;20262;-53
2023/06/18 14:11:27;;;;;;;5.57;4.82;;;;;;;;;;5055831;28;20510;-53
2023/06/18 14:13:53;;;;;;;5.40;4.10;;;;;;;;;;5062610;28;20229;-53
2023/06/18 14:16:19;;;;;;;6.00;5.15;;;;;;;;;;5063754;28;20221;-53
2023/06/18 14:18:45;;;;;;;5.70;4.63;;;;;;;;;;5055736;28;20236;-53
2023/06/18 14:21:12;;;;;;;6.35;4.70;;;;;;;;;;5055569;28;20187;-53
2023/06/18 14:23:38;;;;;;;5.68;4.68;;;;;;;;;;5055188;28;20233;-53
2023/06/18 14:26:04;;;;;;;6.90;4.60;;;;;;;;;;5055900;28;20211;-53
2023/06/18 14:28:30;;;;;;;5.22;4.43;;;;;;;;;;5057086;28;20252;-54
2023/06/18 14:30:56;;;;;;;5.30;4.72;;;;;;;;;;5062620;28;20171;-53
2023/06/18 14:33:22;;;;;;;6.13;5.20;;;;;;;;;;5062535;28;20195;-53
2023/06/18 14:35:48;;;;;;;5.78;4.80;;;;;;;;;;5055418;28;20201;-53
2023/06/18 14:38:14;;;;;;;5.53;4.95;;;;;;;;;;5065935;28;20464;-54
2023/06/18 14:40:40;;;;;;;5.93;5.07;;;;;;;;;;5054080;28;20191;-53
2023/06/18 14:43:06;;;;;;;4.93;4.43;;;;;;;;;;5055599;28;20214;-54